sensor_id;sensor_type;location;lat;lon;timestamp;temperature;humidity
3001;DHT22;1510;51.072;6.678;2023-09-12T00:00:06;18.60;99.90
3001;DHT22;1510;51.072;6.678;2023-09-12T00:02:33;18.60;99.90
3001;DHT22;1510;51.072;6.678;2023-09-12T00:05:00;18.60;99.90
3001;DHT22;1510;51.072;6.678;2023-09-12T00:07:27;18.60;99.90
3001;DHT22;1510;51.072;6.678;2023-09-12T00:09:55;18.70;99.90
3001;DHT22;1510;51.072;6.678;2023-09-12T00:12:23;18.70;99.90
3001;DHT22;1510;51.072;6.678;2023-09-12T00:14:50;18.80;99.90
3001;DHT22;1510;51.072;6.678;2023-09-12T00:17:17;18.80;99.90
3001;DHT22;1510;51.072;6.678;2023-09-12T00:19:44;18.80;99.90
3001;DHT22;1510;51.072;6.678;2023-09-12T00:22:11;18.90;99.90
3001;DHT22;1510;51.072;6.678;2023-09-12T00:24:38;18.90;99.90
3001;DHT22;1510;51.072;6.678;2023-09-12T00:27:06;19.00;99.90
3001;DHT22;1510;51.072;6.678;2023-09-12T00:29:33;18.90;99.90
3001;DHT22;1510;51.072;6.678;2023-09-12T00:32:00;18.90;99.90
3001;DHT22;1510;51.072;6.678;2023-09-12T00:34:27;18.90;99.90
3001;DHT22;1510;51.072;6.678;2023-09-12T00:36:53;18.90;99.90
3001;DHT22;1510;51.072;6.678;2023-09-12T00:39:20;19.00;99.90
3001;DHT22;1510;51.072;6.678;2023-09-12T00:41:47;18.90;99.90
3001;DHT22;1510;51.072;6.678;2023-09-12T00:44:15;18.80;99.90
3001;DHT22;1510;51.072;6.678;2023-09-12T00:46:44;18.70;99.90
3001;DHT22;1510;51.072;6.678;2023-09-12T00:49:12;18.70;99.90
3001;DHT22;1510;51.072;6.678;2023-09-12T00:51:40;18.60;99.90
3001;DHT22;1510;51.072;6.678;2023-09-12T00:54:07;18.50;99.90
3001;DHT22;1510;51.072;6.678;2023-09-12T00:56:34;18.40;99.90
3001;DHT22;1510;51.072;6.678;2023-09-12T00:59:01;18.40;99.90
3001;DHT22;1510;51.072;6.678;2023-09-12T01:01:31;18.30;99.90
3001;DHT22;1510;51.072;6.678;2023-09-12T01:03:59;18.30;99.90
3001;DHT22;1510;51.072;6.678;2023-09-12T01:06:29;18.30;99.90
3001;DHT22;1510;51.072;6.678;2023-09-12T01:08:57;18.20;99.90
3001;DHT22;1510;51.072;6.678;2023-09-12T01:11:24;18.20;99.90
3001;DHT22;1510;51.072;6.678;2023-09-12T01:13:51;18.10;99.90
3001;DHT22;1510;51.072;6.678;2023-09-12T01:16:18;18.10;99.90
3001;DHT22;1510;51.072;6.678;2023-09-12T01:18:46;18.10;99.90
3001;DHT22;1510;51.072;6.678;2023-09-12T01:21:38;18.10;99.90
3001;DHT22;1510;51.072;6.678;2023-09-12T01:24:30;18.20;99.90
3001;DHT22;1510;51.072;6.678;2023-09-12T01:27:25;18.30;99.90
3001;DHT22;1510;51.072;6.678;2023-09-12T01:29:56;18.30;99.90
3001;DHT22;1510;51.072;6.678;2023-09-12T01:32:24;18.30;99.90
3001;DHT22;1510;51.072;6.678;2023-09-12T01:34:50;18.40;99.90
3001;DHT22;1510;51.072;6.678;2023-09-12T01:37:17;18.40;99.90
3001;DHT22;1510;51.072;6.678;2023-09-12T01:39:44;18.40;99.90
3001;DHT22;1510;51.072;6.678;2023-09-12T01:42:14;18.50;99.90
3001;DHT22;1510;51.072;6.678;2023-09-12T01:44:45;18.50;99.90
3001;DHT22;1510;51.072;6.678;2023-09-12T01:47:13;18.40;99.90
3001;DHT22;1510;51.072;6.678;2023-09-12T01:49:42;18.40;99.90
3001;DHT22;1510;51.072;6.678;2023-09-12T01:52:09;18.30;99.90
3001;DHT22;1510;51.072;6.678;2023-09-12T01:54:37;18.40;99.90
3001;DHT22;1510;51.072;6.678;2023-09-12T01:57:05;18.30;99.90
3001;DHT22;1510;51.072;6.678;2023-09-12T01:59:32;18.30;99.90
3001;DHT22;1510;51.072;6.678;2023-09-12T02:02:00;18.30;99.90
3001;DHT22;1510;51.072;6.678;2023-09-12T02:04:27;18.30;99.90
3001;DHT22;1510;51.072;6.678;2023-09-12T02:06:54;18.20;99.90
3001;DHT22;1510;51.072;6.678;2023-09-12T02:09:21;18.20;99.90
3001;DHT22;1510;51.072;6.678;2023-09-12T02:11:49;18.20;99.90
3001;DHT22;1510;51.072;6.678;2023-09-12T02:14:16;18.10;99.90
3001;DHT22;1510;51.072;6.678;2023-09-12T02:16:43;18.20;99.90
3001;DHT22;1510;51.072;6.678;2023-09-12T02:19:11;18.10;99.90
3001;DHT22;1510;51.072;6.678;2023-09-12T02:21:38;18.10;99.90
3001;DHT22;1510;51.072;6.678;2023-09-12T02:24:06;18.10;99.90
3001;DHT22;1510;51.072;6.678;2023-09-12T02:26:33;18.10;99.90
3001;DHT22;1510;51.072;6.678;2023-09-12T02:29:02;18.10;99.90
3001;DHT22;1510;51.072;6.678;2023-09-12T02:31:29;18.20;99.90
3001;DHT22;1510;51.072;6.678;2023-09-12T02:33:56;18.10;99.90
3001;DHT22;1510;51.072;6.678;2023-09-12T02:36:24;18.10;99.90
3001;DHT22;1510;51.072;6.678;2023-09-12T02:38:51;18.10;99.90
3001;DHT22;1510;51.072;6.678;2023-09-12T02:41:17;18.00;99.90
3001;DHT22;1510;51.072;6.678;2023-09-12T02:43:44;18.10;99.90
3001;DHT22;1510;51.072;6.678;2023-09-12T02:46:11;18.00;99.90
3001;DHT22;1510;51.072;6.678;2023-09-12T02:48:38;18.00;99.90
3001;DHT22;1510;51.072;6.678;2023-09-12T02:51:05;18.10;99.90
3001;DHT22;1510;51.072;6.678;2023-09-12T02:53:33;18.00;99.90
3001;DHT22;1510;51.072;6.678;2023-09-12T02:56:00;17.90;99.90
3001;DHT22;1510;51.072;6.678;2023-09-12T02:58:26;17.90;99.90
3001;DHT22;1510;51.072;6.678;2023-09-12T03:00:53;17.90;99.90
3001;DHT22;1510;51.072;6.678;2023-09-12T03:03:20;17.80;99.90
3001;DHT22;1510;51.072;6.678;2023-09-12T03:05:47;17.80;99.90
3001;DHT22;1510;51.072;6.678;2023-09-12T03:08:14;17.80;99.90
3001;DHT22;1510;51.072;6.678;2023-09-12T03:10:42;17.80;99.90
3001;DHT22;1510;51.072;6.678;2023-09-12T03:13:11;17.70;99.90
3001;DHT22;1510;51.072;6.678;2023-09-12T03:15:38;17.70;99.90
3001;DHT22;1510;51.072;6.678;2023-09-12T03:18:09;17.60;99.90
3001;DHT22;1510;51.072;6.678;2023-09-12T03:20:38;17.60;99.90
3001;DHT22;1510;51.072;6.678;2023-09-12T03:23:05;17.60;99.90
3001;DHT22;1510;51.072;6.678;2023-09-12T03:25:35;17.60;99.90
3001;DHT22;1510;51.072;6.678;2023-09-12T03:28:05;17.60;99.90
3001;DHT22;1510;51.072;6.678;2023-09-12T03:30:33;17.60;99.90
3001;DHT22;1510;51.072;6.678;2023-09-12T03:33:00;17.60;99.90
3001;DHT22;1510;51.072;6.678;2023-09-12T03:35:28;17.60;99.90
3001;DHT22;1510;51.072;6.678;2023-09-12T03:37:55;17.60;99.90
3001;DHT22;1510;51.072;6.678;2023-09-12T03:40:22;17.70;99.90
3001;DHT22;1510;51.072;6.678;2023-09-12T03:42:49;17.70;99.90
3001;DHT22;1510;51.072;6.678;2023-09-12T03:45:17;17.70;99.90
3001;DHT22;1510;51.072;6.678;2023-09-12T03:47:44;17.70;99.90
3001;DHT22;1510;51.072;6.678;2023-09-12T03:50:12;17.70;99.90
3001;DHT22;1510;51.072;6.678;2023-09-12T03:52:39;17.70;99.90
3001;DHT22;1510;51.072;6.678;2023-09-12T03:55:07;17.70;99.90
3001;DHT22;1510;51.072;6.678;2023-09-12T03:57:34;17.70;99.90
3001;DHT22;1510;51.072;6.678;2023-09-12T04:00:01;17.80;99.90
3001;DHT22;1510;51.072;6.678;2023-09-12T04:02:32;17.80;99.90
3001;DHT22;1510;51.072;6.678;2023-09-12T04:04:59;17.80;99.90
3001;DHT22;1510;51.072;6.678;2023-09-12T04:07:26;17.90;99.90
3001;DHT22;1510;51.072;6.678;2023-09-12T04:09:53;18.00;99.90
3001;DHT22;1510;51.072;6.678;2023-09-12T04:12:19;18.00;99.90
3001;DHT22;1510;51.072;6.678;2023-09-12T04:14:48;18.10;99.90
3001;DHT22;1510;51.072;6.678;2023-09-12T04:17:15;18.10;99.90
3001;DHT22;1510;51.072;6.678;2023-09-12T04:19:43;18.10;99.90
3001;DHT22;1510;51.072;6.678;2023-09-12T04:22:10;18.10;99.90
3001;DHT22;1510;51.072;6.678;2023-09-12T04:24:37;18.10;99.90
3001;DHT22;1510;51.072;6.678;2023-09-12T04:27:04;18.20;99.90
3001;DHT22;1510;51.072;6.678;2023-09-12T04:29:32;18.20;99.90
3001;DHT22;1510;51.072;6.678;2023-09-12T04:32:01;18.20;99.90
3001;DHT22;1510;51.072;6.678;2023-09-12T04:34:28;18.20;99.90
3001;DHT22;1510;51.072;6.678;2023-09-12T04:36:57;18.30;99.90
3001;DHT22;1510;51.072;6.678;2023-09-12T04:39:24;18.30;99.90
3001;DHT22;1510;51.072;6.678;2023-09-12T04:41:50;18.20;99.90
3001;DHT22;1510;51.072;6.678;2023-09-12T04:44:17;18.20;99.90
3001;DHT22;1510;51.072;6.678;2023-09-12T04:46:44;18.20;99.90
3001;DHT22;1510;51.072;6.678;2023-09-12T04:49:11;18.20;99.90
3001;DHT22;1510;51.072;6.678;2023-09-12T04:51:38;18.20;99.90
3001;DHT22;1510;51.072;6.678;2023-09-12T04:54:06;18.10;99.90
3001;DHT22;1510;51.072;6.678;2023-09-12T04:56:33;18.00;99.90
3001;DHT22;1510;51.072;6.678;2023-09-12T04:59:00;18.00;99.90
3001;DHT22;1510;51.072;6.678;2023-09-12T05:01:27;17.90;99.90
3001;DHT22;1510;51.072;6.678;2023-09-12T05:03:54;17.90;99.90
3001;DHT22;1510;51.072;6.678;2023-09-12T05:06:20;17.90;99.90
3001;DHT22;1510;51.072;6.678;2023-09-12T05:08:47;17.90;99.90
3001;DHT22;1510;51.072;6.678;2023-09-12T05:11:16;18.00;99.90
3001;DHT22;1510;51.072;6.678;2023-09-12T05:13:43;18.10;99.90
3001;DHT22;1510;51.072;6.678;2023-09-12T05:16:10;18.20;99.90
3001;DHT22;1510;51.072;6.678;2023-09-12T05:18:37;18.30;99.90
3001;DHT22;1510;51.072;6.678;2023-09-12T05:21:03;18.40;99.90
3001;DHT22;1510;51.072;6.678;2023-09-12T05:23:30;18.50;99.90
3001;DHT22;1510;51.072;6.678;2023-09-12T05:25:57;18.50;99.90
3001;DHT22;1510;51.072;6.678;2023-09-12T05:28:26;18.60;99.90
3001;DHT22;1510;51.072;6.678;2023-09-12T05:30:52;18.70;99.90
3001;DHT22;1510;51.072;6.678;2023-09-12T05:33:19;18.70;99.90
3001;DHT22;1510;51.072;6.678;2023-09-12T05:35:46;18.80;99.90
3001;DHT22;1510;51.072;6.678;2023-09-12T05:38:13;18.90;99.90
3001;DHT22;1510;51.072;6.678;2023-09-12T05:40:40;18.90;99.90
3001;DHT22;1510;51.072;6.678;2023-09-12T05:43:06;18.90;99.90
3001;DHT22;1510;51.072;6.678;2023-09-12T05:45:35;19.00;99.90
3001;DHT22;1510;51.072;6.678;2023-09-12T05:48:02;19.00;99.90
3001;DHT22;1510;51.072;6.678;2023-09-12T05:50:29;18.80;99.90
3001;DHT22;1510;51.072;6.678;2023-09-12T05:52:55;18.60;99.90
3001;DHT22;1510;51.072;6.678;2023-09-12T05:55:22;18.80;99.90
3001;DHT22;1510;51.072;6.678;2023-09-12T05:57:49;18.70;99.90
3001;DHT22;1510;51.072;6.678;2023-09-12T06:00:18;18.70;99.90
3001;DHT22;1510;51.072;6.678;2023-09-12T06:02:46;18.60;99.90
3001;DHT22;1510;51.072;6.678;2023-09-12T06:05:13;18.60;99.90
3001;DHT22;1510;51.072;6.678;2023-09-12T06:07:40;18.50;99.90
3001;DHT22;1510;51.072;6.678;2023-09-12T06:10:08;18.50;99.90
3001;DHT22;1510;51.072;6.678;2023-09-12T06:12:35;18.50;99.90
3001;DHT22;1510;51.072;6.678;2023-09-12T06:15:03;18.60;99.90
3001;DHT22;1510;51.072;6.678;2023-09-12T06:17:30;18.60;99.90
3001;DHT22;1510;51.072;6.678;2023-09-12T06:19:58;18.60;99.90
3001;DHT22;1510;51.072;6.678;2023-09-12T06:22:25;18.70;99.90
3001;DHT22;1510;51.072;6.678;2023-09-12T06:24:53;18.70;99.90
3001;DHT22;1510;51.072;6.678;2023-09-12T06:27:19;18.70;99.90
3001;DHT22;1510;51.072;6.678;2023-09-12T06:29:46;18.80;99.90
3001;DHT22;1510;51.072;6.678;2023-09-12T06:32:13;18.90;99.90
3001;DHT22;1510;51.072;6.678;2023-09-12T06:34:40;18.90;99.90
3001;DHT22;1510;51.072;6.678;2023-09-12T06:37:08;18.90;99.90
3001;DHT22;1510;51.072;6.678;2023-09-12T06:39:35;18.90;99.90
3001;DHT22;1510;51.072;6.678;2023-09-12T06:42:02;19.00;99.90
3001;DHT22;1510;51.072;6.678;2023-09-12T06:44:29;19.00;99.90
3001;DHT22;1510;51.072;6.678;2023-09-12T06:46:56;19.10;99.90
3001;DHT22;1510;51.072;6.678;2023-09-12T06:49:23;19.10;99.90
3001;DHT22;1510;51.072;6.678;2023-09-12T06:51:50;19.20;99.90
3001;DHT22;1510;51.072;6.678;2023-09-12T06:54:18;19.30;99.90
3001;DHT22;1510;51.072;6.678;2023-09-12T06:56:45;19.40;99.90
3001;DHT22;1510;51.072;6.678;2023-09-12T06:59:12;19.50;99.90
3001;DHT22;1510;51.072;6.678;2023-09-12T07:01:38;19.50;99.90
3001;DHT22;1510;51.072;6.678;2023-09-12T07:04:05;19.70;99.90
3001;DHT22;1510;51.072;6.678;2023-09-12T07:06:32;19.80;99.90
3001;DHT22;1510;51.072;6.678;2023-09-12T07:08:59;20.00;99.90
3001;DHT22;1510;51.072;6.678;2023-09-12T07:11:27;20.20;99.90
3001;DHT22;1510;51.072;6.678;2023-09-12T07:13:54;20.30;99.90
3001;DHT22;1510;51.072;6.678;2023-09-12T07:16:21;20.50;99.90
3001;DHT22;1510;51.072;6.678;2023-09-12T07:18:48;20.50;99.90
3001;DHT22;1510;51.072;6.678;2023-09-12T07:21:16;20.50;99.90
3001;DHT22;1510;51.072;6.678;2023-09-12T07:23:43;20.60;99.90
3001;DHT22;1510;51.072;6.678;2023-09-12T07:26:12;20.60;99.90
3001;DHT22;1510;51.072;6.678;2023-09-12T07:28:40;20.70;99.90
3001;DHT22;1510;51.072;6.678;2023-09-12T07:31:07;20.80;99.90
3001;DHT22;1510;51.072;6.678;2023-09-12T07:33:34;20.90;99.90
3001;DHT22;1510;51.072;6.678;2023-09-12T07:36:01;21.00;99.90
3001;DHT22;1510;51.072;6.678;2023-09-12T07:38:29;21.10;99.90
3001;DHT22;1510;51.072;6.678;2023-09-12T07:40:56;21.20;99.90
3001;DHT22;1510;51.072;6.678;2023-09-12T07:43:24;21.30;99.90
3001;DHT22;1510;51.072;6.678;2023-09-12T07:45:56;21.30;99.90
3001;DHT22;1510;51.072;6.678;2023-09-12T07:48:23;21.50;99.90
3001;DHT22;1510;51.072;6.678;2023-09-12T07:50:50;21.70;99.90
3001;DHT22;1510;51.072;6.678;2023-09-12T07:53:17;21.70;99.90
3001;DHT22;1510;51.072;6.678;2023-09-12T07:55:44;21.70;99.90
3001;DHT22;1510;51.072;6.678;2023-09-12T07:58:12;21.60;99.90
3001;DHT22;1510;51.072;6.678;2023-09-12T08:00:39;21.80;99.90
3001;DHT22;1510;51.072;6.678;2023-09-12T08:03:08;21.80;99.90
3001;DHT22;1510;51.072;6.678;2023-09-12T08:05:35;22.00;99.90
3001;DHT22;1510;51.072;6.678;2023-09-12T08:08:02;22.00;99.90
3001;DHT22;1510;51.072;6.678;2023-09-12T08:10:29;22.00;99.90
3001;DHT22;1510;51.072;6.678;2023-09-12T08:12:56;22.20;99.90
3001;DHT22;1510;51.072;6.678;2023-09-12T08:15:23;22.00;99.90
3001;DHT22;1510;51.072;6.678;2023-09-12T08:17:50;22.20;99.90
3001;DHT22;1510;51.072;6.678;2023-09-12T08:20:20;22.60;99.90
3001;DHT22;1510;51.072;6.678;2023-09-12T08:22:47;22.60;99.90
3001;DHT22;1510;51.072;6.678;2023-09-12T08:25:14;22.80;99.90
3001;DHT22;1510;51.072;6.678;2023-09-12T08:27:41;22.90;99.90
3001;DHT22;1510;51.072;6.678;2023-09-12T08:30:10;23.00;99.90
3001;DHT22;1510;51.072;6.678;2023-09-12T08:32:38;22.90;99.90
3001;DHT22;1510;51.072;6.678;2023-09-12T08:35:09;22.90;99.90
3001;DHT22;1510;51.072;6.678;2023-09-12T08:37:37;23.00;99.90
3001;DHT22;1510;51.072;6.678;2023-09-12T08:40:05;23.20;99.90
3001;DHT22;1510;51.072;6.678;2023-09-12T08:42:39;23.30;99.90
3001;DHT22;1510;51.072;6.678;2023-09-12T08:45:12;23.60;99.90
3001;DHT22;1510;51.072;6.678;2023-09-12T08:47:40;23.60;99.90
3001;DHT22;1510;51.072;6.678;2023-09-12T08:50:10;23.70;99.90
3001;DHT22;1510;51.072;6.678;2023-09-12T08:52:39;23.50;99.90
3001;DHT22;1510;51.072;6.678;2023-09-12T08:55:07;23.70;99.90
3001;DHT22;1510;51.072;6.678;2023-09-12T08:57:36;24.20;99.90
3001;DHT22;1510;51.072;6.678;2023-09-12T09:00:05;24.20;99.90
3001;DHT22;1510;51.072;6.678;2023-09-12T09:02:35;24.20;99.90
3001;DHT22;1510;51.072;6.678;2023-09-12T09:05:04;24.20;99.90
3001;DHT22;1510;51.072;6.678;2023-09-12T09:07:33;24.40;99.90
3001;DHT22;1510;51.072;6.678;2023-09-12T09:10:03;24.70;99.90
3001;DHT22;1510;51.072;6.678;2023-09-12T09:12:31;24.40;99.90
3001;DHT22;1510;51.072;6.678;2023-09-12T09:14:58;24.30;99.90
3001;DHT22;1510;51.072;6.678;2023-09-12T09:17:26;24.20;98.80
3001;DHT22;1510;51.072;6.678;2023-09-12T09:19:53;24.00;96.80
3001;DHT22;1510;51.072;6.678;2023-09-12T09:22:20;24.00;98.30
3001;DHT22;1510;51.072;6.678;2023-09-12T09:24:48;23.90;99.90
3001;DHT22;1510;51.072;6.678;2023-09-12T09:27:32;24.20;99.90
3001;DHT22;1510;51.072;6.678;2023-09-12T09:30:00;24.50;94.70
3001;DHT22;1510;51.072;6.678;2023-09-12T09:32:28;24.90;92.80
3001;DHT22;1510;51.072;6.678;2023-09-12T09:34:55;24.80;85.10
3001;DHT22;1510;51.072;6.678;2023-09-12T09:37:23;24.80;82.50
3001;DHT22;1510;51.072;6.678;2023-09-12T09:39:51;24.90;90.50
3001;DHT22;1510;51.072;6.678;2023-09-12T09:42:18;24.90;90.20
3001;DHT22;1510;51.072;6.678;2023-09-12T09:44:47;25.10;90.20
3001;DHT22;1510;51.072;6.678;2023-09-12T09:47:15;25.40;90.30
3001;DHT22;1510;51.072;6.678;2023-09-12T09:49:45;25.30;83.40
3001;DHT22;1510;51.072;6.678;2023-09-12T09:52:12;25.80;87.30
3001;DHT22;1510;51.072;6.678;2023-09-12T09:54:43;25.60;75.10
3001;DHT22;1510;51.072;6.678;2023-09-12T09:57:10;25.60;75.00
3001;DHT22;1510;51.072;6.678;2023-09-12T09:59:37;25.60;75.10
3001;DHT22;1510;51.072;6.678;2023-09-12T10:02:09;26.00;75.30
3001;DHT22;1510;51.072;6.678;2023-09-12T10:04:39;26.10;72.20
3001;DHT22;1510;51.072;6.678;2023-09-12T10:07:06;26.10;75.30
3001;DHT22;1510;51.072;6.678;2023-09-12T10:09:34;26.20;75.40
3001;DHT22;1510;51.072;6.678;2023-09-12T10:12:02;26.50;75.60
3001;DHT22;1510;51.072;6.678;2023-09-12T10:14:29;26.50;65.80
3001;DHT22;1510;51.072;6.678;2023-09-12T10:17:00;26.60;67.60
3001;DHT22;1510;51.072;6.678;2023-09-12T10:19:34;26.80;68.50
3001;DHT22;1510;51.072;6.678;2023-09-12T10:22:08;26.50;59.00
3001;DHT22;1510;51.072;6.678;2023-09-12T10:24:36;26.70;65.60
3001;DHT22;1510;51.072;6.678;2023-09-12T10:27:05;26.90;65.40
3001;DHT22;1510;51.072;6.678;2023-09-12T10:29:33;26.20;62.40
3001;DHT22;1510;51.072;6.678;2023-09-12T10:32:00;26.00;67.10
3001;DHT22;1510;51.072;6.678;2023-09-12T10:34:27;25.90;75.20
3001;DHT22;1510;51.072;6.678;2023-09-12T10:36:58;26.00;67.10
3001;DHT22;1510;51.072;6.678;2023-09-12T10:39:27;26.00;67.10
3001;DHT22;1510;51.072;6.678;2023-09-12T10:41:54;25.70;67.00
3001;DHT22;1510;51.072;6.678;2023-09-12T10:44:22;25.90;67.00
3001;DHT22;1510;51.072;6.678;2023-09-12T10:46:50;25.90;73.00
3001;DHT22;1510;51.072;6.678;2023-09-12T10:49:19;26.10;72.00
3001;DHT22;1510;51.072;6.678;2023-09-12T10:51:47;26.50;69.40
3001;DHT22;1510;51.072;6.678;2023-09-12T10:54:23;26.90;59.20
3001;DHT22;1510;51.072;6.678;2023-09-12T10:57:02;26.60;61.60
3001;DHT22;1510;51.072;6.678;2023-09-12T10:59:30;26.90;60.20
3001;DHT22;1510;51.072;6.678;2023-09-12T11:02:27;26.70;63.70
3001;DHT22;1510;51.072;6.678;2023-09-12T11:04:55;26.60;60.10
3001;DHT22;1510;51.072;6.678;2023-09-12T11:07:44;26.80;64.90
3001;DHT22;1510;51.072;6.678;2023-09-12T11:10:21;27.00;59.30
3001;DHT22;1510;51.072;6.678;2023-09-12T11:12:49;27.70;59.80
3001;DHT22;1510;51.072;6.678;2023-09-12T11:15:16;27.60;59.70
3001;DHT22;1510;51.072;6.678;2023-09-12T11:17:44;27.80;56.70
3001;DHT22;1510;51.072;6.678;2023-09-12T11:20:11;27.90;59.80
3001;DHT22;1510;51.072;6.678;2023-09-12T11:22:40;27.90;51.10
3001;DHT22;1510;51.072;6.678;2023-09-12T11:25:16;28.10;51.20
3001;DHT22;1510;51.072;6.678;2023-09-12T11:28:03;28.40;42.40
3001;DHT22;1510;51.072;6.678;2023-09-12T11:30:31;29.00;40.40
3001;DHT22;1510;51.072;6.678;2023-09-12T11:32:58;29.70;34.00
3001;DHT22;1510;51.072;6.678;2023-09-12T11:35:27;29.30;33.70
3001;DHT22;1510;51.072;6.678;2023-09-12T11:37:55;29.10;33.60
3001;DHT22;1510;51.072;6.678;2023-09-12T11:40:24;28.60;34.30
3001;DHT22;1510;51.072;6.678;2023-09-12T11:42:53;28.30;38.70
3001;DHT22;1510;51.072;6.678;2023-09-12T11:45:20;28.40;38.90
3001;DHT22;1510;51.072;6.678;2023-09-12T11:47:47;28.00;39.60
3001;DHT22;1510;51.072;6.678;2023-09-12T11:50:31;27.50;41.70
3001;DHT22;1510;51.072;6.678;2023-09-12T11:53:00;27.10;41.50
3001;DHT22;1510;51.072;6.678;2023-09-12T11:55:27;26.70;41.20
3001;DHT22;1510;51.072;6.678;2023-09-12T11:57:57;27.10;38.00
3001;DHT22;1510;51.072;6.678;2023-09-12T12:00:24;28.00;37.40
3001;DHT22;1510;51.072;6.678;2023-09-12T12:02:52;28.90;33.50
3001;DHT22;1510;51.072;6.678;2023-09-12T12:05:19;29.50;33.80
3001;DHT22;1510;51.072;6.678;2023-09-12T12:07:46;29.40;30.00
3001;DHT22;1510;51.072;6.678;2023-09-12T12:10:14;29.20;25.70
3001;DHT22;1510;51.072;6.678;2023-09-12T12:12:43;29.30;26.20
3001;DHT22;1510;51.072;6.678;2023-09-12T12:15:13;29.20;33.70
3001;DHT22;1510;51.072;6.678;2023-09-12T12:17:41;29.50;30.00
3001;DHT22;1510;51.072;6.678;2023-09-12T12:20:09;29.60;25.80
3001;DHT22;1510;51.072;6.678;2023-09-12T12:22:36;30.00;26.00
3001;DHT22;1510;51.072;6.678;2023-09-12T12:25:07;30.10;23.30
3001;DHT22;1510;51.072;6.678;2023-09-12T12:27:36;30.20;21.20
3001;DHT22;1510;51.072;6.678;2023-09-12T12:30:05;30.60;19.70
3001;DHT22;1510;51.072;6.678;2023-09-12T12:32:33;30.80;19.00
3001;DHT22;1510;51.072;6.678;2023-09-12T12:35:00;30.10;18.60
3001;DHT22;1510;51.072;6.678;2023-09-12T12:37:29;30.10;15.00
3001;DHT22;1510;51.072;6.678;2023-09-12T12:39:57;30.30;17.30
3001;DHT22;1510;51.072;6.678;2023-09-12T12:42:24;30.70;11.30
3001;DHT22;1510;51.072;6.678;2023-09-12T12:44:53;31.30;11.80
3001;DHT22;1510;51.072;6.678;2023-09-12T12:47:21;31.20;11.50
3001;DHT22;1510;51.072;6.678;2023-09-12T12:49:52;30.80;3.50
3001;DHT22;1510;51.072;6.678;2023-09-12T12:52:23;30.60;7.30
3001;DHT22;1510;51.072;6.678;2023-09-12T12:54:50;30.70;4.20
3001;DHT22;1510;51.072;6.678;2023-09-12T12:57:19;30.50;11.10
3001;DHT22;1510;51.072;6.678;2023-09-12T12:59:47;30.80;8.60
3001;DHT22;1510;51.072;6.678;2023-09-12T13:02:14;31.60;6.80
3001;DHT22;1510;51.072;6.678;2023-09-12T13:04:41;31.80;4.00
3001;DHT22;1510;51.072;6.678;2023-09-12T13:07:09;32.60;1.00
3001;DHT22;1510;51.072;6.678;2023-09-12T13:09:37;31.40;1.00
3001;DHT22;1510;51.072;6.678;2023-09-12T13:12:05;31.90;4.00
3001;DHT22;1510;51.072;6.678;2023-09-12T13:14:34;31.90;1.00
3001;DHT22;1510;51.072;6.678;2023-09-12T13:17:01;31.80;1.00
3001;DHT22;1510;51.072;6.678;2023-09-12T13:19:28;31.80;1.00
3001;DHT22;1510;51.072;6.678;2023-09-12T13:21:55;31.90;1.00
3001;DHT22;1510;51.072;6.678;2023-09-12T13:24:23;32.00;1.40
3001;DHT22;1510;51.072;6.678;2023-09-12T13:26:51;31.50;3.70
3001;DHT22;1510;51.072;6.678;2023-09-12T13:29:18;31.40;1.00
3001;DHT22;1510;51.072;6.678;2023-09-12T13:31:45;32.10;4.10
3001;DHT22;1510;51.072;6.678;2023-09-12T13:34:11;31.70;1.00
3001;DHT22;1510;51.072;6.678;2023-09-12T13:36:38;31.50;1.00
3001;DHT22;1510;51.072;6.678;2023-09-12T13:39:06;31.90;1.00
3001;DHT22;1510;51.072;6.678;2023-09-12T13:41:35;31.90;1.00
3001;DHT22;1510;51.072;6.678;2023-09-12T13:44:01;31.30;1.00
3001;DHT22;1510;51.072;6.678;2023-09-12T13:46:28;32.50;1.00
3001;DHT22;1510;51.072;6.678;2023-09-12T13:48:55;32.30;1.00
3001;DHT22;1510;51.072;6.678;2023-09-12T13:51:26;32.50;1.00
3001;DHT22;1510;51.072;6.678;2023-09-12T13:53:52;31.80;1.00
3001;DHT22;1510;51.072;6.678;2023-09-12T13:56:19;31.90;1.00
3001;DHT22;1510;51.072;6.678;2023-09-12T13:58:47;32.40;1.00
3001;DHT22;1510;51.072;6.678;2023-09-12T14:01:15;31.30;1.00
3001;DHT22;1510;51.072;6.678;2023-09-12T14:03:42;31.90;1.00
3001;DHT22;1510;51.072;6.678;2023-09-12T14:06:09;32.40;1.00
3001;DHT22;1510;51.072;6.678;2023-09-12T14:08:35;31.60;1.00
3001;DHT22;1510;51.072;6.678;2023-09-12T14:11:03;30.90;1.00
3001;DHT22;1510;51.072;6.678;2023-09-12T14:13:29;30.70;1.00
3001;DHT22;1510;51.072;6.678;2023-09-12T14:15:58;30.60;1.40
3001;DHT22;1510;51.072;6.678;2023-09-12T14:18:24;30.20;3.10
3001;DHT22;1510;51.072;6.678;2023-09-12T14:20:51;30.50;1.00
3001;DHT22;1510;51.072;6.678;2023-09-12T14:23:18;30.00;3.00
3001;DHT22;1510;51.072;6.678;2023-09-12T14:25:46;30.20;1.00
3001;DHT22;1510;51.072;6.678;2023-09-12T14:28:13;30.30;1.00
3001;DHT22;1510;51.072;6.678;2023-09-12T14:30:40;29.80;2.80
3001;DHT22;1510;51.072;6.678;2023-09-12T14:33:11;29.30;2.60
3001;DHT22;1510;51.072;6.678;2023-09-12T14:35:39;29.60;2.80
3001;DHT22;1510;51.072;6.678;2023-09-12T14:38:06;29.50;2.80
3001;DHT22;1510;51.072;6.678;2023-09-12T14:40:33;29.50;2.70
3001;DHT22;1510;51.072;6.678;2023-09-12T14:43:00;29.80;2.90
3001;DHT22;1510;51.072;6.678;2023-09-12T14:45:28;29.50;2.70
3001;DHT22;1510;51.072;6.678;2023-09-12T14:47:56;29.60;2.80
3001;DHT22;1510;51.072;6.678;2023-09-12T14:50:24;29.70;3.60
3001;DHT22;1510;51.072;6.678;2023-09-12T14:52:54;29.80;3.60
3001;DHT22;1510;51.072;6.678;2023-09-12T14:55:21;29.80;2.90
3001;DHT22;1510;51.072;6.678;2023-09-12T14:57:48;29.80;2.00
3001;DHT22;1510;51.072;6.678;2023-09-12T15:00:16;29.40;2.70
3001;DHT22;1510;51.072;6.678;2023-09-12T15:02:42;28.70;5.10
3001;DHT22;1510;51.072;6.678;2023-09-12T15:05:09;28.10;9.80
3001;DHT22;1510;51.072;6.678;2023-09-12T15:07:37;27.60;9.50
3001;DHT22;1510;51.072;6.678;2023-09-12T15:10:05;27.40;11.20
3001;DHT22;1510;51.072;6.678;2023-09-12T15:12:32;27.30;17.00
3001;DHT22;1510;51.072;6.678;2023-09-12T15:14:59;27.00;16.90
3001;DHT22;1510;51.072;6.678;2023-09-12T15:17:26;26.60;16.70
3001;DHT22;1510;51.072;6.678;2023-09-12T15:19:52;26.50;21.70
3001;DHT22;1510;51.072;6.678;2023-09-12T15:22:19;26.30;20.30
3001;DHT22;1510;51.072;6.678;2023-09-12T15:24:47;26.40;23.90
3001;DHT22;1510;51.072;6.678;2023-09-12T15:27:14;26.40;21.10
3001;DHT22;1510;51.072;6.678;2023-09-12T15:29:41;26.40;20.70
3001;DHT22;1510;51.072;6.678;2023-09-12T15:32:08;26.50;21.70
3001;DHT22;1510;51.072;6.678;2023-09-12T15:34:35;26.50;19.70
3001;DHT22;1510;51.072;6.678;2023-09-12T15:37:09;26.20;21.80
3001;DHT22;1510;51.072;6.678;2023-09-12T15:39:36;26.20;23.90
3001;DHT22;1510;51.072;6.678;2023-09-12T15:42:05;26.10;23.90
3001;DHT22;1510;51.072;6.678;2023-09-12T15:44:33;26.20;21.70
3001;DHT22;1510;51.072;6.678;2023-09-12T15:46:59;26.80;24.20
3001;DHT22;1510;51.072;6.678;2023-09-12T15:49:27;27.20;24.50
3001;DHT22;1510;51.072;6.678;2023-09-12T15:51:55;27.90;17.40
3001;DHT22;1510;51.072;6.678;2023-09-12T15:54:22;28.40;17.70
3001;DHT22;1510;51.072;6.678;2023-09-12T15:56:50;28.50;15.10
3001;DHT22;1510;51.072;6.678;2023-09-12T15:59:18;27.90;16.30
3001;DHT22;1510;51.072;6.678;2023-09-12T16:01:45;27.30;17.10
3001;DHT22;1510;51.072;6.678;2023-09-12T16:04:12;26.60;22.10
3001;DHT22;1510;51.072;6.678;2023-09-12T16:06:39;26.00;23.80
3001;DHT22;1510;51.072;6.678;2023-09-12T16:09:06;25.60;24.30